Time;durP1;ratioP1;P1;durP2;ratioP2;P2;SDS_P1;SDS_P2;PMS_P1;PMS_P2;Temp;Humidity;BMP_temperature;BMP_pressure;BME280_temperature;BME280_humidity;BME280_pressure;Samples;Min_cycle;Max_cycle;Signal;HPM_P1;HPM_P2
2022/03/24 00:02:10;;;;;;;65.22;34.65;;;;;;;8.73;90.02;103072.28;5012970;28;20040;-67
2022/03/24 00:04:35;;;;;;;59.80;32.20;;;;;;;8.66;88.42;103075.34;5015126;28;20109;-68
2022/03/24 00:07:00;;;;;;;61.85;32.45;;;;;;;8.71;89.40;103068.66;4994459;28;20372;-68
2022/03/24 00:09:26;;;;;;;69.43;33.90;;;;;;;8.59;89.52;103067.94;5012464;28;20033;-69
2022/03/24 00:11:51;;;;;;;63.35;33.38;;;;;;;8.54;89.28;103066.75;5020431;28;20405;-68
2022/03/24 00:14:17;;;;;;;65.45;34.95;;;;;;;8.53;89.26;103072.78;5021843;28;20025;-69
2022/03/24 00:16:43;;;;;;;58.63;33.83;;;;;;;8.44;89.43;103066.13;5011613;28;20481;-68
2022/03/24 00:19:09;;;;;;;61.13;33.65;;;;;;;8.42;89.74;103075.66;5011594;28;20086;-70
2022/03/24 00:21:35;;;;;;;66.38;34.78;;;;;;;8.41;90.29;103065.97;5012354;28;20030;-70
2022/03/24 00:24:00;;;;;;;63.95;33.33;;;;;;;8.38;89.64;103067.47;5031258;28;20026;-69
2022/03/24 00:26:26;;;;;;;69.38;36.35;;;;;;;8.34;90.14;103071.66;5015233;28;20028;-68
2022/03/24 00:28:51;;;;;;;62.42;33.10;;;;;;;8.34;89.93;103071.66;5010950;28;20109;-69
2022/03/24 00:31:16;;;;;;;61.35;33.80;;;;;;;8.26;90.43;103063.28;5023362;28;20025;-70
2022/03/24 00:33:42;;;;;;;63.22;33.15;;;;;;;8.23;90.07;103062.19;5017931;28;20434;-69
2022/03/24 00:36:11;;;;;;;61.90;33.80;;;;;;;8.23;90.65;103064.81;5011516;28;20061;-69
2022/03/24 00:38:38;;;;;;;69.40;33.60;;;;;;;8.27;91.23;103069.44;5011921;28;20037;-69
2022/03/24 00:41:04;;;;;;;65.07;35.30;;;;;;;8.20;91.10;103064.63;5012493;28;20477;-69
2022/03/24 00:43:30;;;;;;;61.35;34.38;;;;;;;8.16;91.53;103063.53;5011600;28;20080;-68
2022/03/24 00:45:55;;;;;;;63.28;35.63;;;;;;;8.09;91.40;103062.22;5011276;28;20394;-69
2022/03/24 00:48:22;;;;;;;64.80;34.08;;;;;;;8.05;91.55;103062.84;5012581;28;20036;-69
2022/03/24 00:50:47;;;;;;;76.95;37.10;;;;;;;8.07;91.29;103061.25;5018995;28;20040;-69
2022/03/24 00:53:12;;;;;;;67.40;35.08;;;;;;;8.05;91.44;103057.59;5016863;28;20026;-69
2022/03/24 00:55:39;;;;;;;64.20;33.83;;;;;;;8.04;91.54;103061.03;5015328;28;20078;-69
2022/03/24 00:58:05;;;;;;;71.03;34.90;;;;;;;7.99;91.57;103062.47;5015066;28;20030;-69
2022/03/24 01:00:36;;;;;;;62.47;35.53;;;;;;;7.93;91.42;103064.69;5016025;28;20033;-69
2022/03/24 01:03:01;;;;;;;72.90;36.40;;;;;;;8.14;93.22;103057.28;5015005;28;20507;-68
2022/03/24 01:05:27;;;;;;;62.28;33.20;;;;;;;8.05;92.21;103057.59;5015112;28;20030;-69
2022/03/24 01:07:54;;;;;;;63.75;34.20;;;;;;;7.92;91.95;103057.63;5012915;28;20029;-69
2022/03/24 01:10:20;;;;;;;65.85;37.00;;;;;;;7.85;92.86;103058.06;5013808;28;20026;-69
2022/03/24 01:12:47;;;;;;;65.75;35.45;;;;;;;7.78;92.76;103050.63;5015344;28;20055;-69
2022/03/24 01:15:14;;;;;;;71.45;34.95;;;;;;;7.64;93.09;103058.53;5014886;28;20500;-68
2022/03/24 01:17:40;;;;;;;61.50;34.22;;;;;;;7.62;93.92;103060.13;5013784;28;20029;-68
2022/03/24 01:20:08;;;;;;;65.72;34.63;;;;;;;7.58;93.35;103058.09;5022881;28;20029;-68
2022/03/24 01:22:35;;;;;;;63.45;35.50;;;;;;;7.63;93.80;103045.31;5015277;28;20429;-69
2022/03/24 01:25:00;;;;;;;64.80;35.58;;;;;;;7.64;94.22;103047.09;4999644;28;20033;-69
2022/03/24 01:27:28;;;;;;;63.30;35.53;;;;;;;7.55;93.64;103042.19;5015227;28;20491;-68
2022/03/24 01:29:55;;;;;;;62.80;35.08;;;;;;;7.48;93.79;103050.47;4997043;28;20029;-69
2022/03/24 01:32:21;;;;;;;65.15;34.05;;;;;;;7.38;94.30;103039.41;5014575;28;20030;-69
2022/03/24 01:34:47;;;;;;;70.18;35.97;;;;;;;7.36;94.87;103042.72;5014285;28;20018;-68
2022/03/24 01:37:13;;;;;;;74.05;37.90;;;;;;;7.34;95.58;103047.88;5018952;28;20041;-69
2022/03/24 01:39:38;;;;;;;67.68;35.38;;;;;;;7.35;95.66;103039.22;5018065;28;20365;-69
2022/03/24 01:42:05;;;;;;;64.78;36.38;;;;;;;7.32;95.33;103032.84;5014746;28;20029;-69
2022/03/24 01:44:34;;;;;;;69.40;35.88;;;;;;;7.32;95.11;103033.75;5033276;28;20053;-69
2022/03/24 01:47:01;;;;;;;67.43;36.00;;;;;;;7.28;94.35;103044.81;5015123;28;20041;-71
2022/03/24 01:49:31;;;;;;;71.03;36.15;;;;;;;7.25;95.20;103037.69;5014208;28;20549;-67
2022/03/24 01:51:57;;;;;;;71.78;36.33;;;;;;;7.22;95.88;103036.59;5013065;28;20030;-68
2022/03/24 01:54:25;;;;;;;75.80;36.92;;;;;;;7.15;95.27;103034.34;5014002;28;20052;-68
2022/03/24 01:56:51;;;;;;;72.18;36.72;;;;;;;7.14;96.37;103030.84;5014192;28;20488;-68
2022/03/24 01:59:18;;;;;;;70.85;36.08;;;;;;;7.15;96.43;103034.34;5021531;28;20547;-67
2022/03/24 02:01:44;;;;;;;68.70;36.38;;;;;;;7.21;96.21;103033.03;5018914;28;20110;-68
2022/03/24 02:04:10;;;;;;;69.88;36.50;;;;;;;7.19;95.90;103028.50;5014200;28;20057;-67
2022/03/24 02:06:36;;;;;;;73.30;36.35;;;;;;;7.11;96.30;103028.03;5013641;28;20035;-67
2022/03/24 02:09:04;;;;;;;70.82;36.40;;;;;;;7.12;95.99;103029.81;5013511;28;20377;-67
2022/03/24 02:11:34;;;;;;;70.03;37.08;;;;;;;7.02;96.84;103028.31;5014574;28;20124;-67
2022/03/24 02:14:00;;;;;;;62.17;34.45;;;;;;;6.99;96.42;103028.13;5013885;28;20087;-67
2022/03/24 02:16:30;;;;;;;67.35;36.83;;;;;;;7.05;97.27;103028.53;5021462;28;20033;-68
2022/03/24 02:18:59;;;;;;;68.28;34.00;;;;;;;6.98;96.79;103033.25;5014136;28;20473;-67
2022/03/24 02:21:27;;;;;;;67.82;37.17;;;;;;;6.87;96.75;103022.06;5020088;28;20374;-67
2022/03/24 02:23:52;;;;;;;63.95;36.65;;;;;;;6.72;98.56;103020.22;5014036;28;20064;-67
2022/03/24 02:26:18;;;;;;;68.13;36.20;;;;;;;6.69;98.32;103022.63;5013462;28;20381;-68
2022/03/24 02:28:45;;;;;;;73.13;38.40;;;;;;;6.67;98.97;103023.34;5013531;28;20117;-68
2022/03/24 02:31:14;;;;;;;77.70;37.70;;;;;;;6.73;97.95;103024.66;5014253;28;20033;-68
2022/03/24 02:33:40;;;;;;;66.05;35.65;;;;;;;6.74;97.42;103023.88;5013722;28;20473;-68
2022/03/24 02:36:07;;;;;;;70.97;38.05;;;;;;;6.80;98.82;103020.75;5015209;28;20454;-68
2022/03/24 02:38:32;;;;;;;70.28;35.45;;;;;;;6.84;97.16;103016.63;5020925;28;20085;-68
2022/03/24 02:40:58;;;;;;;70.53;36.30;;;;;;;6.78;98.23;103017.09;5014096;28;20509;-68
2022/03/24 02:43:24;;;;;;;67.43;35.25;;;;;;;6.83;98.52;103022.66;5014840;28;20037;-68
2022/03/24 02:45:53;;;;;;;67.63;35.20;;;;;;;6.65;98.10;103015.38;5016919;28;20358;-68
2022/03/24 02:48:21;;;;;;;68.13;34.65;;;;;;;6.51;98.84;103018.75;5017082;28;20018;-68
2022/03/24 02:50:46;;;;;;;77.05;37.42;;;;;;;6.48;99.47;103021.19;4994854;28;20465;-68
2022/03/24 02:53:12;;;;;;;71.90;36.50;;;;;;;6.51;99.24;103016.16;5013039;28;20037;-68
2022/03/24 02:55:37;;;;;;;70.70;36.65;;;;;;;6.56;98.69;103015.66;5013051;28;20353;-67
2022/03/24 02:58:02;;;;;;;73.55;38.25;;;;;;;6.51;98.73;103018.75;5012874;28;20030;-68
2022/03/24 03:00:28;;;;;;;75.72;37.05;;;;;;;6.53;99.25;103012.84;4996463;28;20049;-68
2022/03/24 03:02:53;;;;;;;66.93;35.35;;;;;;;6.48;98.98;103018.56;5013190;28;20041;-68
2022/03/24 03:05:19;;;;;;;70.15;35.95;;;;;;;6.49;99.61;103017.75;5011328;28;20032;-68
2022/03/24 03:07:44;;;;;;;68.50;37.00;;;;;;;6.42;99.21;103016.44;5012367;28;20113;-68
2022/03/24 03:10:11;;;;;;;75.88;38.00;;;;;;;6.49;99.51;103009.91;5018384;28;20030;-67
2022/03/24 03:12:37;;;;;;;65.75;35.00;;;;;;;6.43;98.50;103007.81;5018527;28;20025;-68
2022/03/24 03:15:04;;;;;;;71.90;37.17;;;;;;;6.45;99.70;103016.63;5026422;28;20033;-69
2022/03/24 03:17:29;;;;;;;76.63;37.08;;;;;;;6.37;99.19;103017.81;5019599;28;20029;-68
2022/03/24 03:19:55;;;;;;;66.60;36.63;;;;;;;6.38;99.58;103015.31;5019126;28;20528;-68
2022/03/24 03:22:21;;;;;;;72.72;35.30;;;;;;;6.38;99.08;103010.06;5014473;28;20033;-68
2022/03/24 03:24:46;;;;;;;69.15;35.55;;;;;;;6.32;99.05;103017.53;5012707;28;20697;-68
2022/03/24 03:27:12;;;;;;;72.15;36.42;;;;;;;6.30;100.00;103019.09;5012664;28;20077;-68
2022/03/24 03:29:37;;;;;;;72.43;37.60;;;;;;;6.23;100.00;103016.88;5012863;28;20481;-68
2022/03/24 03:32:03;;;;;;;74.57;38.55;;;;;;;6.12;100.00;103016.13;5012411;28;20032;-69
2022/03/24 03:34:30;;;;;;;83.75;37.67;;;;;;;6.14;100.00;103021.47;5012621;28;20073;-68
2022/03/24 03:36:56;;;;;;;69.50;37.10;;;;;;;6.12;100.00;103015.19;5012573;28;20722;-68
2022/03/24 03:39:22;;;;;;;73.72;38.05;;;;;;;6.10;100.00;103014.22;5023568;28;20057;-68
2022/03/24 03:41:48;;;;;;;71.63;38.08;;;;;;;6.13;100.00;103011.78;5023611;28;20055;-69
2022/03/24 03:44:13;;;;;;;67.15;36.78;;;;;;;6.16;100.00;103014.63;4998877;28;20101;-68
2022/03/24 03:46:38;;;;;;;68.93;38.28;;;;;;;6.11;100.00;103018.63;5017187;28;20409;-68
2022/03/24 03:49:07;;;;;;;72.03;37.58;;;;;;;6.06;100.00;103010.47;5012398;28;20065;-68
2022/03/24 03:51:34;;;;;;;72.45;36.75;;;;;;;6.14;100.00;103013.63;5020863;28;20049;-69
2022/03/24 03:53:59;;;;;;;75.60;37.13;;;;;;;6.07;100.00;103013.19;5012798;28;20037;-68
2022/03/24 03:56:24;;;;;;;72.97;37.83;;;;;;;5.99;100.00;103003.00;5010820;28;20470;-69
2022/03/24 03:58:50;;;;;;;79.00;37.13;;;;;;;6.03;100.00;103010.25;5011973;28;20037;-67
2022/03/24 04:01:16;;;;;;;70.57;37.20;;;;;;;5.99;100.00;103003.91;5013851;28;20022;-68
2022/03/24 04:03:41;;;;;;;74.85;37.20;;;;;;;5.98;100.00;103004.72;5011622;28;20068;-68
2022/03/24 04:06:09;;;;;;;70.13;36.58;;;;;;;5.92;100.00;103001.63;4990159;28;20026;-69
2022/03/24 04:08:37;;;;;;;74.82;35.25;;;;;;;5.89;100.00;103002.31;5012080;28;20385;-70
2022/03/24 04:11:03;;;;;;;74.20;35.92;;;;;;;5.91;100.00;103005.03;4997555;28;20022;-68
2022/03/24 04:13:29;;;;;;;64.82;36.65;;;;;;;5.88;100.00;103012.66;5020916;28;20490;-68
2022/03/24 04:15:54;;;;;;;71.15;36.67;;;;;;;5.84;100.00;103008.03;5011295;28;20049;-68
2022/03/24 04:18:22;;;;;;;77.30;38.17;;;;;;;5.81;100.00;103006.09;5017400;28;20057;-69
2022/03/24 04:20:48;;;;;;;72.55;36.75;;;;;;;5.81;100.00;103008.69;5013910;28;20034;-68
2022/03/24 04:23:14;;;;;;;67.93;36.63;;;;;;;5.78;100.00;103013.72;5031952;28;20626;-68
2022/03/24 04:25:40;;;;;;;66.40;35.17;;;;;;;5.78;100.00;103011.09;5020064;28;20114;-68
2022/03/24 04:28:06;;;;;;;67.80;36.00;;;;;;;5.71;100.00;103012.38;5015468;28;20057;-68
2022/03/24 04:30:34;;;;;;;74.00;37.03;;;;;;;5.69;100.00;103008.72;4997939;28;20025;-68
2022/03/24 04:32:59;;;;;;;69.15;36.53;;;;;;;5.69;100.00;103018.28;5015297;28;20045;-69
2022/03/24 04:35:26;;;;;;;68.07;36.38;;;;;;;5.62;100.00;103016.94;5015956;28;20034;-68
2022/03/24 04:37:52;;;;;;;75.18;37.58;;;;;;;5.62;100.00;103016.94;4999081;28;20101;-68
2022/03/24 04:40:18;;;;;;;81.00;36.67;;;;;;;5.66;100.00;103020.69;5012910;28;20155;-68
2022/03/24 04:42:49;;;;;;;72.18;35.25;;;;;;;5.57;100.00;103015.69;5024920;28;20064;-68
2022/03/24 04:45:17;;;;;;;80.55;38.55;;;;;;;5.52;100.00;103010.16;5026690;28;20429;-68
2022/03/24 04:47:43;;;;;;;74.20;38.13;;;;;;;5.52;100.00;103019.66;5024268;28;20026;-70
2022/03/24 04:50:09;;;;;;;72.00;36.63;;;;;;;5.52;100.00;103017.06;5014958;28;20030;-68
2022/03/24 04:52:34;;;;;;;70.95;35.72;;;;;;;5.45;100.00;103015.69;5001366;28;20017;-68
2022/03/24 04:54:59;;;;;;;73.20;37.25;;;;;;;5.45;100.00;103017.41;5029557;28;20474;-67
2022/03/24 04:57:29;;;;;;;75.43;36.20;;;;;;;5.58;100.00;103025.34;4997617;28;20033;-67
2022/03/24 04:59:54;;;;;;;70.15;34.60;;;;;;;5.44;100.00;103019.13;5015780;28;20173;-67
2022/03/24 05:02:20;;;;;;;65.78;34.10;;;;;;;5.39;100.00;103016.16;5030683;28;20465;-67
2022/03/24 05:04:46;;;;;;;64.80;34.10;;;;;;;5.33;100.00;103018.34;5023746;28;20026;-67
2022/03/24 05:07:11;;;;;;;82.70;37.22;;;;;;;5.35;100.00;103023.69;5008395;28;20143;-68
2022/03/24 05:09:37;;;;;;;77.90;38.33;;;;;;;5.37;100.00;103023.00;4999559;28;20104;-70
2022/03/24 05:12:03;;;;;;;71.80;36.95;;;;;;;5.36;100.00;103021.16;5027186;28;20026;-68
2022/03/24 05:14:30;;;;;;;65.93;35.08;;;;;;;5.34;100.00;103014.91;5030956;28;20177;-68
2022/03/24 05:16:56;;;;;;;72.60;36.13;;;;;;;5.46;100.00;103017.53;5014421;28;20046;-68
2022/03/24 05:19:21;;;;;;;69.80;36.20;;;;;;;5.37;100.00;103025.59;4997419;28;20045;-68
2022/03/24 05:21:46;;;;;;;64.95;32.42;;;;;;;5.39;100.00;103024.00;5014592;28;20022;-67
2022/03/24 05:24:12;;;;;;;68.40;34.58;;;;;;;5.56;100.00;103026.91;5014848;28;20035;-68
2022/03/24 05:26:39;;;;;;;66.07;34.15;;;;;;;5.37;100.00;103019.47;5026827;28;20112;-69
2022/03/24 05:29:04;;;;;;;76.15;34.30;;;;;;;5.31;100.00;103025.16;5014393;28;20026;-68
2022/03/24 05:31:30;;;;;;;70.35;35.58;;;;;;;5.21;100.00;103033.13;5014651;28;20021;-68
2022/03/24 05:33:55;;;;;;;67.03;35.20;;;;;;;5.20;100.00;103026.06;5015096;28;20033;-68
2022/03/24 05:36:20;;;;;;;68.00;34.15;;;;;;;5.20;100.00;103033.91;5015024;28;20519;-70
2022/03/24 05:38:46;;;;;;;61.65;33.25;;;;;;;5.17;100.00;103033.69;5001078;28;20029;-68
2022/03/24 05:41:12;;;;;;;68.15;35.60;;;;;;;5.16;100.00;103037.06;4997053;28;20425;-68
2022/03/24 05:43:39;;;;;;;63.13;33.92;;;;;;;5.17;100.00;103033.69;5014830;28;20105;-69
2022/03/24 05:46:04;;;;;;;66.65;33.20;;;;;;;5.16;100.00;103037.97;5014167;28;20516;-69
2022/03/24 05:48:29;;;;;;;64.18;33.35;;;;;;;5.15;100.00;103037.88;5028161;28;20025;-69
2022/03/24 05:50:55;;;;;;;67.30;35.30;;;;;;;5.21;100.00;103048.78;4995721;28;20025;-68
2022/03/24 05:53:20;;;;;;;74.43;36.03;;;;;;;5.21;100.00;103051.38;5019928;28;20025;-69
2022/03/24 05:55:45;;;;;;;72.22;36.95;;;;;;;5.13;100.00;103049.88;5013746;28;20021;-68
2022/03/24 05:58:12;;;;;;;64.85;34.35;;;;;;;5.16;100.00;103051.03;5014390;28;20037;-68
2022/03/24 06:00:38;;;;;;;73.30;36.75;;;;;;;5.27;100.00;103054.44;5020631;28;20052;-68
2022/03/24 06:03:07;;;;;;;70.50;34.13;;;;;;;5.16;100.00;103053.63;5006958;28;20025;-68
2022/03/24 06:05:33;;;;;;;76.93;36.53;;;;;;;5.25;100.00;103056.03;5023447;28;20029;-70
2022/03/24 06:08:00;;;;;;;66.85;35.30;;;;;;;5.32;100.00;103054.78;5018367;28;20481;-69
2022/03/24 06:10:26;;;;;;;70.80;35.10;;;;;;;5.33;100.00;103048.75;5014148;28;20084;-68
2022/03/24 06:12:52;;;;;;;61.10;32.90;;;;;;;5.32;100.00;103047.84;4995205;28;20034;-68
2022/03/24 06:15:17;;;;;;;73.38;37.30;;;;;;;5.27;100.00;103054.44;5013049;28;20424;-68
2022/03/24 06:17:43;;;;;;;67.68;36.40;;;;;;;5.38;100.00;103053.50;5013673;28;20025;-69
2022/03/24 06:20:09;;;;;;;67.80;34.63;;;;;;;5.40;100.00;103051.94;5014007;28;20021;-68
2022/03/24 06:22:47;;;;;;;70.22;36.25;;;;;;;5.44;100.00;103052.16;5013749;28;20358;-68
2022/03/24 06:25:12;;;;;;;70.03;33.47;;;;;;;5.47;100.00;103053.28;5010280;28;20018;-68
2022/03/24 06:27:38;;;;;;;78.65;40.63;;;;;;;5.55;100.00;103051.25;5012746;28;20037;-68
2022/03/24 06:30:05;;;;;;;67.22;35.72;;;;;;;5.61;100.00;103046.44;5012972;28;20034;-72
2022/03/24 06:32:31;;;;;;;75.35;37.30;;;;;;;5.63;100.00;103044.88;4996321;28;20076;-72
2022/03/24 06:34:56;;;;;;;69.53;36.70;;;;;;;5.79;100.00;103045.97;5011179;28;20425;-72
2022/03/24 06:37:22;;;;;;;73.70;38.47;;;;;;;5.84;100.00;103049.81;5013014;28;20030;-71
2022/03/24 06:39:47;;;;;;;75.15;36.88;;;;;;;5.90;100.00;103050.25;5013244;28;20037;-72
2022/03/24 06:42:13;;;;;;;69.85;37.50;;;;;;;5.98;100.00;103043.91;4994808;28;20480;-73
2022/03/24 06:44:38;;;;;;;74.03;36.58;;;;;;;6.04;100.00;103051.28;4996015;28;20063;-73
2022/03/24 06:47:04;;;;;;;74.40;37.33;;;;;;;6.03;100.00;103047.72;4993954;28;20497;-72
2022/03/24 06:49:31;;;;;;;71.30;37.88;;;;;;;6.12;100.00;103047.50;5015857;28;20030;-73
2022/03/24 06:51:56;;;;;;;109.40;40.90;;;;;;;6.20;100.00;103050.63;5013386;28;20056;-72
2022/03/24 06:54:21;;;;;;;192.77;51.90;;;;;;;6.25;100.00;103051.84;4991720;28;20022;-73
2022/03/24 06:56:49;;;;;;;93.85;42.67;;;;;;;6.31;100.00;103052.31;5012250;28;20366;-72
2022/03/24 06:59:14;;;;;;;92.45;41.90;;;;;;;6.47;100.00;103056.91;4994429;28;20022;-72
2022/03/24 07:01:40;;;;;;;92.63;40.22;;;;;;;6.57;100.00;103053.19;5013334;28;20025;-72
2022/03/24 07:04:05;;;;;;;80.32;40.30;;;;;;;6.68;100.00;103052.22;5012736;28;20469;-72
2022/03/24 07:06:31;;;;;;;77.28;36.97;;;;;;;6.81;100.00;103045.19;5011309;28;20517;-73
2022/03/24 07:08:56;;;;;;;80.97;38.90;;;;;;;6.91;100.00;103047.63;5011588;28;20477;-70
2022/03/24 07:11:21;;;;;;;88.00;39.53;;;;;;;7.06;100.00;103055.59;5011970;28;20021;-69
2022/03/24 07:13:47;;;;;;;71.57;37.47;;;;;;;7.16;100.00;103051.88;5011611;28;20028;-69
2022/03/24 07:16:12;;;;;;;77.63;38.20;;;;;;;7.36;100.00;103051.47;5012154;28;20038;-69
2022/03/24 07:18:37;;;;;;;76.00;37.90;;;;;;;7.40;100.00;103048.25;5012864;28;20056;-68
2022/03/24 07:21:03;;;;;;;68.57;37.83;;;;;;;7.49;100.00;103052.28;4994019;28;20026;-69
2022/03/24 07:23:28;;;;;;;68.55;36.15;;;;;;;7.61;100.00;103050.47;5014287;28;20429;-69
2022/03/24 07:25:53;;;;;;;72.38;36.20;;;;;;;7.74;100.00;103058.28;4996224;28;20132;-72
2022/03/24 07:28:19;;;;;;;71.45;36.65;;;;;;;7.80;100.00;103054.25;4993519;28;20040;-72
2022/03/24 07:30:50;;;;;;;63.92;36.25;;;;;;;7.85;100.00;103053.72;5008063;28;20045;-73
2022/03/24 07:33:16;;;;;;;65.07;36.35;;;;;;;7.90;100.00;103054.94;5011757;28;20049;-71
2022/03/24 07:35:42;;;;;;;70.28;37.63;;;;;;;7.93;100.00;103063.00;5011412;28;20326;-72
2022/03/24 07:38:09;;;;;;;69.35;37.35;;;;;;;7.98;100.00;103052.81;5008196;28;20076;-72
2022/03/24 07:40:34;;;;;;;88.25;37.65;;;;;;;8.05;100.00;103057.59;4993746;28;20049;-72
2022/03/24 07:43:01;;;;;;;72.30;37.20;;;;;;;8.11;100.00;103062.31;5011355;28;20512;-71
2022/03/24 07:45:26;;;;;;;59.47;35.40;;;;;;;8.17;100.00;103064.44;5014695;28;20017;-71
2022/03/24 07:48:06;;;;;;;68.30;37.22;;;;;;;8.21;100.00;103069.06;5024732;28;20040;-73
2022/03/24 07:50:31;;;;;;;66.13;35.38;;;;;;;8.24;100.00;103070.16;5010513;28;20363;-73
2022/03/24 07:53:08;;;;;;;68.93;37.33;;;;;;;8.30;100.00;103074.84;5012095;28;20037;-72
2022/03/24 07:55:37;;;;;;;78.85;37.63;;;;;;;8.40;100.00;103084.22;5012093;28;20052;-73
2022/03/24 07:58:03;;;;;;;62.03;33.97;;;;;;;8.47;100.00;103083.81;5011678;28;20351;-73
2022/03/24 08:00:28;;;;;;;64.10;35.17;;;;;;;8.56;100.00;103088.72;4993731;28;20024;-73
2022/03/24 08:02:53;;;;;;;58.42;34.65;;;;;;;8.64;100.00;103082.25;5012932;28;20030;-70
2022/03/24 08:05:18;;;;;;;64.63;36.15;;;;;;;8.69;100.00;103096.53;5017391;28;20041;-73
2022/03/24 08:07:44;;;;;;;61.20;33.78;;;;;;;8.76;100.00;103088.22;5011804;28;20072;-73
2022/03/24 08:10:09;;;;;;;62.05;36.28;;;;;;;8.83;100.00;103093.81;5011708;28;20083;-73
2022/03/24 08:12:35;;;;;;;59.92;33.55;;;;;;;8.93;100.00;103094.47;5011302;28;20400;-73
2022/03/24 08:15:01;;;;;;;59.17;34.55;;;;;;;8.98;100.00;103094.75;5028746;28;20053;-73
2022/03/24 08:17:26;;;;;;;58.17;34.58;;;;;;;9.07;100.00;103089.13;5014673;28;20029;-73
2022/03/24 08:19:52;;;;;;;61.42;34.13;;;;;;;9.18;100.00;103092.41;5013570;28;20091;-72
2022/03/24 08:22:18;;;;;;;70.72;35.55;;;;;;;9.27;100.00;103092.94;4993119;28;20053;-73
2022/03/24 08:24:43;;;;;;;59.28;33.45;;;;;;;9.34;99.52;103095.09;5008824;28;20038;-72
2022/03/24 08:27:08;;;;;;;65.75;33.42;;;;;;;9.40;99.01;103095.47;5008860;28;20030;-72
2022/03/24 08:29:34;;;;;;;56.97;33.60;;;;;;;9.47;96.52;103085.28;5011309;28;20054;-72
2022/03/24 08:31:59;;;;;;;56.83;31.17;;;;;;;9.61;94.92;103079.09;5011270;28;20056;-71
2022/03/24 08:34:24;;;;;;;54.08;31.08;;;;;;;9.70;94.46;103087.50;5004844;28;20486;-72
2022/03/24 08:36:50;;;;;;;54.25;31.25;;;;;;;9.83;92.60;103085.56;5017157;28;20495;-73
2022/03/24 08:39:15;;;;;;;46.22;28.75;;;;;;;9.95;90.05;103086.25;4993996;28;20029;-73
2022/03/24 08:41:40;;;;;;;58.30;30.42;;;;;;;10.08;89.67;103086.09;5016864;28;20101;-73
2022/03/24 08:44:06;;;;;;;52.60;29.17;;;;;;;10.18;89.45;103086.59;4991920;28;20037;-73
2022/03/24 08:46:31;;;;;;;46.10;27.77;;;;;;;10.32;89.24;103092.59;4978040;28;20029;-72
2022/03/24 08:48:56;;;;;;;50.72;29.73;;;;;;;10.44;88.01;103096.84;5010462;28;20026;-73
2022/03/24 08:51:22;;;;;;;57.53;29.50;;;;;;;10.60;87.60;103093.28;5015703;28;20093;-73
2022/03/24 08:53:48;;;;;;;51.65;29.05;;;;;;;10.79;87.76;103086.34;5011882;28;20030;-72
2022/03/24 08:56:14;;;;;;;45.15;28.65;;;;;;;10.99;87.81;103084.75;5011625;28;20014;-73
2022/03/24 08:58:39;;;;;;;45.83;29.08;;;;;;;11.10;85.37;103098.47;5009266;28;20442;-73
2022/03/24 09:01:05;;;;;;;50.28;28.58;;;;;;;11.30;84.13;103095.09;4993400;28;20549;-73
2022/03/24 09:03:30;;;;;;;41.28;25.75;;;;;;;11.38;80.79;103100.75;5011320;28;20076;-72
2022/03/24 09:05:55;;;;;;;41.42;25.23;;;;;;;11.53;80.17;103097.06;5011810;28;20021;-73
2022/03/24 09:08:21;;;;;;;47.65;26.50;;;;;;;11.69;75.47;103096.06;4994321;28;20033;-73
2022/03/24 09:10:50;;;;;;;42.60;24.98;;;;;;;11.97;73.02;103093.94;5013938;28;20117;-74
2022/03/24 09:13:15;;;;;;;49.13;24.98;;;;;;;12.20;74.52;103096.75;5015389;28;20093;-74
2022/03/24 09:15:43;;;;;;;44.13;26.25;;;;;;;12.42;74.82;103093.34;5014414;28;20057;-72
2022/03/24 09:18:10;;;;;;;34.72;23.02;;;;;;;12.67;72.67;103089.19;5018303;28;20029;-72
2022/03/24 09:20:35;;;;;;;38.65;23.85;;;;;;;12.86;69.70;103095.25;4997641;28;20524;-72
2022/03/24 09:23:01;;;;;;;36.88;22.13;;;;;;;13.07;64.42;103090.00;5014646;28;20029;-72
2022/03/24 09:25:26;;;;;;;35.33;21.35;;;;;;;13.35;62.55;103091.16;5014027;28;20481;-72
2022/03/24 09:27:52;;;;;;;36.63;22.02;;;;;;;13.60;62.22;103093.09;4997576;28;20030;-72
2022/03/24 09:30:18;;;;;;;41.30;23.88;;;;;;;13.92;64.20;103115.53;5004082;28;20099;-72
2022/03/24 09:32:45;;;;;;;34.75;21.17;;;;;;;14.13;63.09;103104.91;4969346;28;20030;-72
2022/03/24 09:35:11;;;;;;;34.60;21.10;;;;;;;14.28;55.50;103096.63;4996307;28;20026;-72
2022/03/24 09:37:37;;;;;;;32.67;21.00;;;;;;;14.50;56.49;103092.09;5014230;28;20029;-71
2022/03/24 09:40:05;;;;;;;36.25;20.50;;;;;;;14.67;56.56;103098.06;5023014;28;20040;-74
2022/03/24 09:42:31;;;;;;;35.75;20.52;;;;;;;14.80;55.51;103087.03;4997112;28;20025;-73
2022/03/24 09:45:00;;;;;;;31.55;21.30;;;;;;;14.84;54.64;103082.75;4967265;28;20512;-73
2022/03/24 09:47:27;;;;;;;31.80;20.83;;;;;;;15.12;53.80;103087.25;5012688;28;20030;-72
2022/03/24 09:49:52;;;;;;;36.45;21.60;;;;;;;15.54;53.59;103087.72;5013568;28;20050;-73
2022/03/24 09:52:18;;;;;;;36.45;19.67;;;;;;;15.99;47.67;103076.75;5014151;28;20030;-73
2022/03/24 09:54:45;;;;;;;28.20;19.48;;;;;;;16.31;45.87;103079.47;5016406;28;20056;-73
2022/03/24 09:57:11;;;;;;;37.78;20.77;;;;;;;16.48;47.31;103072.88;5005039;28;20109;-73
2022/03/24 09:59:36;;;;;;;30.13;21.38;;;;;;;16.88;46.32;103072.16;4994052;28;20517;-73
2022/03/24 10:02:04;;;;;;;35.17;22.33;;;;;;;17.33;45.81;103076.84;5013510;28;20482;-73
2022/03/24 10:05:01;;;;;;;27.88;20.33;;;;;;;17.68;42.54;103063.47;5013613;28;20025;-73
2022/03/24 10:07:28;;;;;;;32.08;21.27;;;;;;;17.97;42.92;103065.91;5010340;28;20034;-73
2022/03/24 10:09:58;;;;;;;30.83;23.50;;;;;;;18.15;42.32;103066.31;4996069;28;20091;-73
2022/03/24 10:12:30;;;;;;;35.60;23.20;;;;;;;18.28;42.95;103071.88;5018000;28;20389;-74
2022/03/24 10:15:05;;;;;;;38.63;23.30;;;;;;;18.25;41.59;103061.16;4995622;28;20029;-74
2022/03/24 10:17:31;;;;;;;33.97;22.92;;;;;;;18.26;41.09;103062.94;5013386;28;20117;-73
2022/03/24 10:20:05;;;;;;;38.67;23.85;;;;;;;18.43;41.10;103066.84;5028389;28;20037;-73
2022/03/24 10:22:33;;;;;;;32.33;21.38;;;;;;;18.42;36.84;103043.75;5014647;28;20028;-73
2022/03/24 10:24:59;;;;;;;36.53;22.05;;;;;;;18.40;37.72;103050.81;5013504;28;20026;-73
2022/03/24 10:27:29;;;;;;;30.83;21.15;;;;;;;18.82;37.04;103060.47;5012828;28;20030;-73
2022/03/24 10:29:56;;;;;;;29.05;20.88;;;;;;;19.09;37.31;103058.28;5013150;28;20381;-73
2022/03/24 10:32:28;;;;;;;31.98;21.55;;;;;;;19.25;36.62;103059.41;5014088;28;20036;-73
2022/03/24 10:35:16;;;;;;;35.05;21.35;;;;;;;19.13;36.44;103057.47;5011446;28;20500;-74
2022/03/24 10:37:49;;;;;;;36.13;22.95;;;;;;;19.31;37.64;103059.53;4992453;28;20117;-74
2022/03/24 10:40:14;;;;;;;36.42;22.23;;;;;;;19.46;35.25;103054.41;5006312;28;20030;-73
2022/03/24 10:42:41;;;;;;;34.17;21.20;;;;;;;19.61;34.62;103053.72;4997823;28;20072;-74
2022/03/24 10:45:20;;;;;;;41.80;21.75;;;;;;;19.82;33.73;103050.50;4995757;28;20052;-74
2022/03/24 10:47:48;;;;;;;34.47;20.23;;;;;;;20.06;34.24;103051.69;4994085;28;20030;-73
2022/03/24 10:50:38;;;;;;;33.85;22.65;;;;;;;19.62;35.13;103054.66;5007298;28;20033;-74
2022/03/24 10:53:12;;;;;;;32.80;21.27;;;;;;;19.67;34.51;103052.94;4996410;28;20030;-73
2022/03/24 10:55:43;;;;;;;36.10;23.30;;;;;;;20.02;35.87;103063.22;4995463;28;20121;-74
2022/03/24 10:58:24;;;;;;;29.45;22.05;;;;;;;20.59;35.75;103057.63;5012614;28;20386;-74
2022/03/24 11:00:52;;;;;;;33.35;24.25;;;;;;;20.28;36.05;103051.94;5011943;28;20052;-73
2022/03/24 11:03:19;;;;;;;33.58;20.02;;;;;;;20.86;34.50;103052.59;5011915;28;20076;-74
2022/03/24 11:05:44;;;;;;;37.47;23.00;;;;;;;20.87;33.01;103054.38;5012238;28;20101;-74
2022/03/24 11:08:14;;;;;;;35.88;22.88;;;;;;;21.08;32.94;103047.44;4976394;28;20038;-72
2022/03/24 11:10:45;;;;;;;34.10;21.90;;;;;;;21.49;33.38;103044.13;4993747;28;20037;-72